Time;durP1;ratioP1;P1;durP2;ratioP2;P2;SDS_P1;SDS_P2;PMS_P1;PMS_P2;Temp;Humidity;BMP_temperature;BMP_pressure;BME280_temperature;BME280_humidity;BME280_pressure;Samples;Min_cycle;Max_cycle;Signal;HPM_P1;HPM_P2
2020/12/17 00:00:00;;;;;;;36.43;22.47;;;1.60;99.90;;;-0.37;100.00;100916.75;5013859;27;101034;-63
2020/12/17 00:02:26;;;;;;;35.10;21.20;;;1.70;99.90;;;-0.47;100.00;100919.91;5014411;27;100284;-63
2020/12/17 00:04:53;;;;;;;37.77;22.53;;;1.60;99.90;;;-0.50;100.00;100913.03;5013475;27;100218;-63
2020/12/17 00:07:19;;;;;;;41.47;23.70;;;1.70;99.90;;;-0.33;100.00;100919.25;5017552;27;101201;-63
2020/12/17 00:09:46;;;;;;;35.93;20.93;;;1.50;99.90;;;-0.45;100.00;100913.66;5027272;27;101409;-62
2020/12/17 00:12:13;;;;;;;35.73;22.57;;;1.50;99.90;;;-0.46;100.00;100913.72;5029276;27;100036;-63
2020/12/17 00:14:39;;;;;;;31.57;20.43;;;1.50;99.90;;;-0.76;100.00;100913.41;5030182;27;100067;-64
2020/12/17 00:17:06;;;;;;;35.13;22.23;;;1.40;99.90;;;-0.72;100.00;100920.19;5029519;27;100605;-65
2020/12/17 00:19:32;;;;;;;35.53;22.57;;;1.50;99.90;;;-0.79;100.00;100911.75;5017128;27;100747;-63
2020/12/17 00:21:58;;;;;;;33.47;21.37;;;1.30;99.90;;;-0.83;100.00;100919.84;5009933;27;100155;-65
2020/12/17 00:24:25;;;;;;;35.07;21.87;;;1.30;99.90;;;-0.86;100.00;100920.81;5020571;27;100589;-63
2020/12/17 00:26:52;;;;;;;28.67;20.77;;;1.30;99.90;;;-0.87;100.00;100918.31;5029655;27;100103;-65
2020/12/17 00:29:18;;;;;;;31.53;20.03;;;1.30;99.90;;;-1.02;100.00;100921.63;5030038;27;100776;-64
2020/12/17 00:31:45;;;;;;;34.43;20.70;;;1.20;99.90;;;-1.04;100.00;100919.06;5029980;27;100116;-62
2020/12/17 00:34:12;;;;;;;33.00;20.20;;;1.20;99.90;;;-1.09;100.00;100921.88;5029927;27;100131;-63
2020/12/17 00:36:38;;;;;;;35.50;21.17;;;1.20;99.90;;;-0.99;100.00;100926.75;5028956;27;100016;-63
2020/12/17 00:39:04;;;;;;;39.30;21.63;;;1.10;99.90;;;-1.07;100.00;100924.44;5029186;27;100430;-63
2020/12/17 00:41:31;;;;;;;36.53;21.37;;;1.10;99.90;;;-1.12;100.00;100923.81;5009535;27;100304;-63
2020/12/17 00:43:58;;;;;;;35.47;21.17;;;1.00;99.90;;;-1.24;100.00;100929.63;5008717;27;100086;-63
2020/12/17 00:46:24;;;;;;;36.60;20.73;;;1.00;99.90;;;-1.17;100.00;100917.91;5023789;27;104172;-62
2020/12/17 00:48:51;;;;;;;34.27;19.87;;;1.00;99.90;;;-1.07;100.00;100924.44;5009140;27;100229;-62
2020/12/17 00:51:19;;;;;;;41.43;23.83;;;1.00;99.90;;;-0.91;100.00;100917.56;5020141;27;100382;-63
2020/12/17 00:53:46;;;;;;;39.83;23.07;;;0.90;99.90;;;-0.78;100.00;100921.34;5029860;27;100068;-63
2020/12/17 00:56:12;;;;;;;40.57;21.97;;;0.90;99.90;;;-0.66;100.00;100921.69;5029158;27;100746;-65
2020/12/17 00:58:39;;;;;;;42.50;23.60;;;1.00;99.90;;;-0.67;100.00;100920.84;5029009;27;100907;-63
2020/12/17 01:01:08;;;;;;;42.90;23.93;;;0.90;99.90;;;-0.71;100.00;100914.03;5028144;27;100096;-66
2020/12/17 01:03:41;;;;;;;41.57;24.13;;;1.10;99.90;;;-0.75;100.00;100913.34;5029325;27;100259;-63
2020/12/17 01:06:08;;;;;;;41.27;24.07;;;0.80;99.90;;;-0.74;100.00;100907.13;5028588;27;100428;-63
2020/12/17 01:08:35;;;;;;;42.63;24.57;;;1.00;99.90;;;-0.74;100.00;100909.75;5012678;27;101527;-63
2020/12/17 01:11:02;;;;;;;43.67;24.90;;;1.00;99.90;;;-0.64;100.00;100914.59;5008025;27;99974;-62
2020/12/17 01:13:29;;;;;;;44.30;24.00;;;0.90;99.90;;;-0.65;100.00;100905.00;5008605;27;99915;-62
2020/12/17 01:15:55;;;;;;;41.23;25.77;;;1.00;99.90;;;-0.65;100.00;100915.53;5007813;27;100706;-62
2020/12/17 01:18:22;;;;;;;42.93;25.07;;;0.90;99.90;;;-0.64;100.00;100914.59;5009636;27;101248;-62
2020/12/17 01:20:49;;;;;;;44.23;25.40;;;1.10;99.90;;;-0.60;100.00;100908.25;5009100;27;100206;-63
2020/12/17 01:23:15;;;;;;;43.57;25.77;;;1.00;99.90;;;-0.50;100.00;100902.50;5009946;27;100261;-62
2020/12/17 01:25:42;;;;;;;38.57;22.23;;;1.10;99.90;;;-0.38;100.00;100904.56;5014686;27;101578;-62
2020/12/17 01:28:12;;;;;;;44.17;25.97;;;1.00;99.90;;;-0.37;100.00;100895.72;5007915;27;100061;-62
2020/12/17 01:30:40;;;;;;;40.13;21.90;;;1.20;99.90;;;-0.34;100.00;100896.50;5008546;27;100130;-62
2020/12/17 01:33:06;;;;;;;43.97;25.07;;;1.10;99.90;;;-0.40;100.00;100898.50;5009320;27;100294;-63
2020/12/17 01:35:34;;;;;;;43.93;24.70;;;1.20;99.90;;;-0.36;100.00;100907.09;5008280;27;100926;-62
2020/12/17 01:38:01;;;;;;;43.47;25.57;;;1.10;99.90;;;-0.41;100.00;100902.06;5008489;27;100761;-61
2020/12/17 01:40:27;;;;;;;37.83;23.63;;;1.20;99.90;;;-0.37;100.00;100902.75;5008056;27;100317;-63
2020/12/17 01:42:53;;;;;;;43.30;25.80;;;1.20;99.90;;;-0.44;100.00;100902.22;5009253;27;99817;-63
2020/12/17 01:45:20;;;;;;;42.43;23.73;;;1.10;99.90;;;-0.46;100.00;100896.16;5008459;27;100590;-62
2020/12/17 01:47:48;;;;;;;43.27;24.17;;;1.30;99.90;;;-0.48;100.00;100897.16;5029123;27;100555;-63
2020/12/17 01:50:15;;;;;;;41.60;23.27;;;1.10;99.90;;;-0.43;100.00;100896.03;5018119;27;100147;-62
2020/12/17 01:52:42;;;;;;;44.17;25.10;;;1.20;99.90;;;-0.41;100.00;100901.22;5008877;27;100089;-63
2020/12/17 01:55:08;;;;;;;41.23;23.80;;;1.20;99.90;;;-0.41;100.00;100902.06;5008294;27;100852;-62
2020/12/17 01:57:36;;;;;;;40.33;23.10;;;1.30;99.90;;;-0.38;100.00;100895.81;5007595;27;101258;-62
2020/12/17 02:00:07;;;;;;;40.10;24.67;;;1.20;99.90;;;-0.39;100.00;100897.59;5007562;27;100019;-62
2020/12/17 02:02:36;;;;;;;41.90;24.90;;;1.20;99.90;;;-0.40;100.00;100895.88;5009057;27;100232;-62
2020/12/17 02:05:06;;;;;;;40.23;25.30;;;1.20;99.90;;;-0.47;100.00;100901.50;5007666;27;101382;-63
2020/12/17 02:07:33;;;;;;;37.57;24.57;;;1.20;99.90;;;-0.53;100.00;100886.03;5008516;27;101166;-63
2020/12/17 02:10:01;;;;;;;40.90;24.47;;;1.10;99.90;;;-0.52;100.00;100895.63;5007995;27;100224;-62
2020/12/17 02:12:43;;;;;;;39.60;23.00;;;1.30;99.90;;;-0.56;100.00;100888.78;5008028;27;100104;-63
2020/12/17 02:15:10;;;;;;;42.93;23.67;;;1.20;99.90;;;-0.55;100.00;100883.47;5023508;27;100901;-62
2020/12/17 02:17:36;;;;;;;38.63;23.03;;;1.10;99.90;;;-0.65;100.00;100881.34;5015258;27;101125;-62
2020/12/17 02:20:05;;;;;;;41.63;23.83;;;1.10;99.90;;;-0.61;100.00;100885.53;5027753;27;100105;-62
2020/12/17 02:22:32;;;;;;;41.40;23.37;;;0.90;99.90;;;-0.72;100.00;100893.91;5024812;27;100259;-62
2020/12/17 02:24:59;;;;;;;36.67;22.83;;;1.00;99.90;;;-0.72;100.00;100893.91;5027165;27;101105;-65
2020/12/17 02:27:25;;;;;;;39.90;22.77;;;1.20;99.90;;;-0.80;100.00;100890.81;5026998;27;100824;-62
2020/12/17 02:29:52;;;;;;;40.10;23.67;;;1.10;99.90;;;-0.84;100.00;100892.72;5027948;27;100280;-63
2020/12/17 02:32:18;;;;;;;37.80;21.83;;;1.00;99.90;;;-0.80;100.00;100891.66;5028221;27;100536;-63
2020/12/17 02:34:45;;;;;;;39.80;21.73;;;1.00;99.90;;;-0.78;100.00;100888.97;5010996;27;100663;-63
2020/12/17 02:37:11;;;;;;;37.73;22.80;;;0.80;99.90;;;-0.74;100.00;100890.50;5006713;27;101536;-64
2020/12/17 02:39:38;;;;;;;37.77;22.60;;;0.90;99.90;;;-0.78;100.00;100888.97;5007194;27;99918;-64
2020/12/17 02:42:05;;;;;;;42.13;24.23;;;2.10;99.90;;;-0.80;100.00;100888.19;5006938;27;100248;-65
2020/12/17 02:44:32;;;;;;;34.90;22.03;;;1.00;99.90;;;-0.88;100.00;100882.44;5018766;27;101153;-64
2020/12/17 02:46:58;;;;;;;34.00;21.90;;;1.00;99.90;;;-1.05;100.00;100883.19;5027446;27;100539;-64
2020/12/17 02:49:25;;;;;;;39.80;22.07;;;0.90;99.90;;;-1.13;100.00;100880.09;5028164;27;100187;-65
2020/12/17 02:51:51;;;;;;;38.73;23.13;;;0.90;99.90;;;-1.17;100.00;100879.38;5027536;27;100039;-64
2020/12/17 02:54:17;;;;;;;37.20;21.87;;;1.00;99.90;;;-1.19;100.00;100880.34;5027217;27;101603;-65
2020/12/17 02:56:44;;;;;;;38.67;21.07;;;0.90;99.90;;;-1.20;100.00;100876.88;5027169;27;101257;-62
2020/12/17 02:59:11;;;;;;;35.73;21.30;;;0.80;99.90;;;-1.25;100.00;100880.63;5026932;27;100533;-64
2020/12/17 03:01:38;;;;;;;34.70;21.77;;;0.60;99.90;;;-1.32;100.00;100879.19;5027812;27;100018;-62
2020/12/17 03:04:04;;;;;;;34.90;20.80;;;0.80;99.90;;;-1.16;100.00;100872.34;5027463;27;101161;-62
2020/12/17 03:06:31;;;;;;;35.63;20.27;;;0.80;99.90;;;-1.25;100.00;100875.38;5025336;27;100270;-62
2020/12/17 03:08:57;;;;;;;35.17;20.97;;;0.70;99.90;;;-1.24;100.00;100866.59;5028068;27;100055;-64
2020/12/17 03:11:24;;;;;;;36.27;22.07;;;0.60;99.90;;;-1.12;100.00;100868.66;5024378;27;100768;-62
2020/12/17 03:13:50;;;;;;;36.23;20.50;;;0.60;99.90;;;-1.13;100.00;100866.97;5008431;27;101410;-62
2020/12/17 03:16:18;;;;;;;38.00;21.70;;;0.70;99.90;;;-1.10;100.00;100861.53;5006587;27;100419;-62
2020/12/17 03:18:45;;;;;;;36.47;22.23;;;0.80;99.90;;;-1.12;100.00;100856.38;5012927;27;99999;-64
2020/12/17 03:21:11;;;;;;;35.17;22.30;;;0.60;99.90;;;-1.04;100.00;100856.03;5027986;27;99902;-62
2020/12/17 03:23:38;;;;;;;38.70;22.90;;;0.70;99.90;;;-0.99;100.00;100864.53;5022902;27;100459;-65
2020/12/17 03:26:04;;;;;;;41.33;23.93;;;0.70;99.90;;;-0.97;100.00;100864.44;5006383;27;101432;-64
2020/12/17 03:28:30;;;;;;;40.03;24.30;;;0.70;99.90;;;-1.02;100.00;100874.34;5006385;27;100160;-62
2020/12/17 03:30:57;;;;;;;39.27;22.70;;;0.80;99.90;;;-1.45;100.00;100873.63;5006787;27;100036;-64
2020/12/17 03:33:24;;;;;;;38.90;20.87;;;0.70;99.90;;;-1.48;100.00;100866.75;5007084;27;100922;-63
2020/12/17 03:35:51;;;;;;;32.17;18.57;;;-0.10;99.90;;;-1.29;100.00;100868.56;5006127;27;100642;-64
2020/12/17 03:38:17;;;;;;;37.47;21.57;;;0.60;99.90;;;-1.61;100.00;100870.84;5007098;27;99881;-64
2020/12/17 03:40:44;;;;;;;31.07;18.73;;;0.50;99.90;;;-1.31;100.00;100868.63;5020939;27;100332;-64
2020/12/17 03:43:10;;;;;;;34.70;18.83;;;0.50;99.90;;;-1.48;100.00;100858.88;5026834;27;101730;-63
2020/12/17 03:45:40;;;;;;;37.93;21.33;;;0.50;99.90;;;-1.59;100.00;100855.00;5027151;27;100289;-62
2020/12/17 03:48:06;;;;;;;37.60;22.13;;;0.50;99.90;;;-1.74;100.00;100858.34;5009453;27;99816;-62
2020/12/17 03:50:33;;;;;;;35.30;20.77;;;0.60;99.90;;;-1.84;100.00;100855.22;5007032;27;100230;-64
2020/12/17 03:53:00;;;;;;;35.63;22.87;;;0.40;99.90;;;-1.81;100.00;100855.09;5010832;27;101068;-62
2020/12/17 03:55:29;;;;;;;36.57;22.83;;;0.40;99.90;;;-1.52;100.00;100854.69;5026194;27;100469;-62
2020/12/17 03:57:55;;;;;;;31.53;17.67;;;0.30;99.90;;;-1.48;100.00;100845.75;5026700;27;99981;-62
2020/12/17 04:00:22;;;;;;;35.00;21.40;;;0.30;99.90;;;-1.79;100.00;100855.91;5025372;27;101429;-64
2020/12/17 04:02:48;;;;;;;38.30;22.27;;;0.30;99.90;;;-2.00;100.00;100857.69;5026491;27;101957;-62
2020/12/17 04:05:14;;;;;;;29.63;18.73;;;0.30;99.90;;;-1.89;100.00;100851.97;5026357;27;100510;-63
2020/12/17 04:07:42;;;;;;;36.73;22.30;;;0.20;99.90;;;-2.06;100.00;100857.06;5019685;27;99934;-63
2020/12/17 04:10:08;;;;;;;34.50;21.17;;;0.30;99.90;;;-2.12;100.00;100850.31;5006012;27;100195;-63
2020/12/17 04:12:35;;;;;;;34.70;20.90;;;0.20;99.90;;;-2.07;100.00;100850.13;5005936;27;100730;-63
2020/12/17 04:15:01;;;;;;;37.27;20.47;;;0.10;99.90;;;-2.05;100.00;100843.91;5006302;27;100953;-63
2020/12/17 04:17:27;;;;;;;34.30;19.90;;;0.10;99.90;;;-2.06;100.00;100847.44;5005826;27;100037;-63
2020/12/17 04:19:54;;;;;;;33.97;19.00;;;0.10;99.90;;;-1.75;100.00;100843.50;5005984;27;100006;-62
2020/12/17 04:22:20;;;;;;;30.10;18.33;;;0.20;99.90;;;-1.71;100.00;100847.69;5005537;27;100785;-63
2020/12/17 04:24:48;;;;;;;30.70;18.40;;;0.00;99.90;;;-1.83;100.00;100847.31;5019191;27;101133;-64
2020/12/17 04:27:15;;;;;;;38.77;22.30;;;0.10;99.90;;;-1.87;100.00;100843.13;5025952;27;99983;-63
2020/12/17 04:29:41;;;;;;;34.83;20.07;;;0.00;99.90;;;-1.86;100.00;100851.84;5026334;27;100160;-63
2020/12/17 04:32:08;;;;;;;35.80;20.20;;;0.10;99.90;;;-1.84;100.00;100848.22;5026129;27;100823;-63
2020/12/17 04:34:34;;;;;;;30.43;18.90;;;0.10;99.90;;;-1.65;100.00;100843.03;5025452;27;100566;-63
2020/12/17 04:37:01;;;;;;;32.57;20.73;;;0.10;99.90;;;-1.86;100.00;100852.69;5025929;27;100017;-63
2020/12/17 04:39:27;;;;;;;32.90;19.93;;;0.00;99.90;;;-2.00;100.00;100852.44;5026023;27;100255;-64
2020/12/17 04:41:56;;;;;;;35.80;20.40;;;-0.10;99.90;;;-1.75;100.00;100846.97;5025379;27;100052;-63
2020/12/17 04:44:23;;;;;;;33.30;20.40;;;-0.10;99.90;;;-1.98;100.00;100839.25;5040932;27;102982;-63
2020/12/17 04:46:56;;;;;;;36.57;22.27;;;0.00;99.90;;;-1.98;100.00;100844.50;5025500;27;100213;-62
2020/12/17 04:49:31;;;;;;;39.40;23.67;;;0.00;99.90;;;-2.00;100.00;100843.72;5029806;27;99956;-63
2020/12/17 04:51:59;;;;;;;40.87;24.37;;;0.00;99.90;;;-1.93;100.00;100835.50;5029071;27;101486;-64
2020/12/17 04:54:25;;;;;;;47.47;29.83;;;0.00;99.90;;;-1.92;100.00;100847.69;5029053;27;101909;-63
2020/12/17 04:57:09;;;;;;;41.23;26.53;;;0.00;99.90;;;-1.87;100.00;100845.75;5011517;27;101258;-63
2020/12/17 04:59:46;;;;;;;38.70;23.80;;;-0.10;99.90;;;-1.75;100.00;100841.75;5008956;27;100167;-61
2020/12/17 05:02:14;;;;;;;35.27;22.67;;;0.00;99.90;;;-1.79;100.00;100847.19;5010404;27;101735;-63
2020/12/17 05:04:43;;;;;;;39.90;23.93;;;0.00;99.90;;;-2.01;100.00;100842.84;5028932;27;100725;-63
2020/12/17 05:07:13;;;;;;;40.23;24.07;;;0.10;99.90;;;-1.86;100.00;100841.34;5028880;27;100246;-63
2020/12/17 05:09:42;;;;;;;33.93;21.23;;;0.00;99.90;;;-2.03;100.00;100841.22;5029361;27;100040;-63
2020/12/17 05:12:10;;;;;;;37.87;22.40;;;0.00;99.90;;;-1.97;100.00;100839.16;5028708;27;100566;-64
2020/12/17 05:14:37;;;;;;;35.67;21.33;;;1.20;99.90;;;-1.96;100.00;100837.41;5028921;27;100621;-63
2020/12/17 05:17:04;;;;;;;36.90;23.13;;;0.10;99.90;;;-2.14;100.00;100836.44;5027316;27;100010;-63
2020/12/17 05:19:31;;;;;;;34.10;21.37;;;0.00;99.90;;;-2.11;100.00;100838.94;5028956;27;99968;-63
2020/12/17 05:21:59;;;;;;;31.50;20.80;;;0.10;99.90;;;-1.92;100.00;100834.59;5028690;27;100611;-63
2020/12/17 05:24:27;;;;;;;35.47;21.43;;;0.40;99.90;;;-1.91;100.00;100838.06;5020151;27;100595;-63
2020/12/17 05:26:56;;;;;;;31.77;19.37;;;0.00;99.90;;;-2.09;100.00;100836.22;5028874;27;100004;-64
2020/12/17 05:29:24;;;;;;;36.27;21.33;;;0.00;99.90;;;-2.05;100.00;100837.78;5029173;27;100042;-63
2020/12/17 05:31:51;;;;;;;33.67;20.53;;;0.00;99.90;;;-2.07;100.00;100842.25;5026258;27;101027;-63
2020/12/17 05:34:18;;;;;;;36.37;20.80;;;0.10;99.90;;;-2.20;100.00;100834.03;5026666;27;100361;-63
2020/12/17 05:36:46;;;;;;;32.83;20.10;;;-0.10;99.90;;;-2.27;100.00;100828.22;5007908;27;100120;-64
2020/12/17 05:39:17;;;;;;;32.37;19.37;;;-0.20;99.90;;;-2.04;100.00;100831.63;5008733;27;99867;-63
2020/12/17 05:41:46;;;;;;;36.83;20.23;;;0.10;99.90;;;-2.06;100.00;100833.47;5010560;27;101532;-64
2020/12/17 05:44:14;;;;;;;31.63;18.17;;;-0.10;99.90;;;-2.18;100.00;100837.47;5028764;27;99891;-62
2020/12/17 05:46:44;;;;;;;34.07;19.80;;;0.00;99.90;;;-2.20;100.00;100841.91;5028346;27;100096;-65
2020/12/17 05:49:17;;;;;;;33.03;18.73;;;-0.10;99.90;;;-2.08;100.00;100849.25;5028541;27;100030;-63
2020/12/17 05:51:45;;;;;;;32.33;19.13;;;-0.10;99.90;;;-1.82;100.00;100848.16;5028230;27;101194;-62
2020/12/17 05:54:21;;;;;;;32.90;19.93;;;-0.20;99.90;;;-2.19;100.00;100852.34;5028276;27;101044;-62
2020/12/17 05:56:50;;;;;;;30.07;17.37;;;0.00;99.90;;;-2.12;100.00;100858.19;5005400;27;100112;-64
2020/12/17 05:59:23;;;;;;;34.57;20.07;;;-0.20;99.90;;;-2.10;100.00;100858.13;5018427;27;100306;-64
2020/12/17 06:01:50;;;;;;;32.47;19.63;;;-0.10;99.90;;;-2.19;100.00;100868.06;5028148;27;101681;-65
2020/12/17 06:04:17;;;;;;;29.10;18.00;;;-0.20;99.90;;;-2.30;100.00;100877.28;5028657;27;100543;-65
2020/12/17 06:06:48;;;;;;;31.70;19.27;;;-0.10;99.90;;;-2.41;100.00;100877.72;5028240;27;100064;-65
2020/12/17 06:09:23;;;;;;;35.23;19.00;;;-0.10;99.90;;;-2.44;100.00;100877.84;5028254;27;100192;-65
2020/12/17 06:11:51;;;;;;;34.10;17.10;;;-0.20;99.90;;;-2.35;100.00;100881.88;5027480;27;100205;-62
2020/12/17 06:14:21;;;;;;;32.60;18.73;;;-0.20;99.90;;;-2.48;100.00;100868.41;5022947;27;101339;-64
2020/12/17 06:16:54;;;;;;;37.03;20.33;;;-0.30;99.90;;;-2.40;100.00;100871.56;5008163;27;100018;-62
2020/12/17 06:19:24;;;;;;;33.20;19.30;;;-0.30;99.90;;;-2.48;100.00;100886.75;5017442;27;100243;-63
2020/12/17 06:21:51;;;;;;;35.20;19.63;;;-0.30;99.90;;;-2.34;100.00;100880.94;5028073;27;101400;-63
2020/12/17 06:24:19;;;;;;;34.10;19.70;;;-0.30;99.90;;;-2.64;100.00;100872.56;5018366;27;101535;-63
2020/12/17 06:26:55;;;;;;;36.37;20.93;;;-0.30;99.90;;;-2.57;100.00;100880.09;5005543;27;100259;-64
2020/12/17 06:29:22;;;;;;;32.60;19.20;;;-0.40;99.90;;;-2.57;100.00;100892.34;5008005;27;100149;-63
2020/12/17 06:31:59;;;;;;;33.20;20.47;;;-0.20;99.90;;;-2.46;100.00;100890.16;5007135;27;101366;-63
2020/12/17 06:34:37;;;;;;;33.43;19.27;;;-0.30;99.90;;;-2.57;100.00;100901.06;5007231;27;100530;-64
2020/12/17 06:37:04;;;;;;;33.03;20.00;;;-0.30;99.90;;;-2.56;100.00;100905.38;5007693;27;100235;-63
2020/12/17 06:39:32;;;;;;;32.60;20.70;;;-0.40;99.90;;;-2.66;100.00;100903.19;5008222;27;100090;-63
2020/12/17 06:41:58;;;;;;;33.77;19.40;;;-0.40;99.90;;;-2.76;100.00;100891.38;5007813;27;100951;-63
2020/12/17 06:44:27;;;;;;;34.53;20.40;;;-0.50;99.90;;;-2.67;100.00;100896.25;5007954;27;100349;-63
2020/12/17 06:46:56;;;;;;;38.07;21.50;;;-0.40;99.90;;;-2.65;100.00;100897.91;5011730;27;100445;-63
2020/12/17 06:49:27;;;;;;;47.43;29.40;;;-0.20;99.90;;;-2.63;100.00;100895.22;5012501;27;100143;-63
2020/12/17 06:52:08;;;;;;;43.10;26.70;;;-0.50;99.90;;;-2.57;100.00;100903.69;5008077;27;99919;-64
2020/12/17 06:54:40;;;;;;;42.53;25.63;;;-0.50;99.90;;;-2.38;100.00;100901.19;5026501;27;100295;-63
2020/12/17 06:57:09;;;;;;;39.80;24.47;;;-0.40;99.90;;;-2.49;100.00;100898.16;5027534;27;100095;-62
2020/12/17 06:59:39;;;;;;;45.13;27.13;;;-0.40;99.90;;;-2.57;100.00;100897.59;5027503;27;100440;-63
2020/12/17 07:02:07;;;;;;;43.97;26.57;;;-0.40;99.90;;;-2.36;100.00;100899.38;5027502;27;100798;-63
2020/12/17 07:04:42;;;;;;;48.77;29.23;;;-0.50;99.90;;;-2.20;100.00;100892.56;5027650;27;100575;-63
2020/12/17 07:07:17;;;;;;;49.07;25.57;;;-0.50;99.90;;;-1.53;100.00;100896.75;5027834;27;100371;-63
2020/12/17 07:09:47;;;;;;;42.83;25.57;;;-0.30;99.90;;;-2.05;100.00;100901.59;5025036;27;100347;-63
2020/12/17 07:12:43;;;;;;;45.63;27.30;;;-0.40;99.90;;;-2.06;100.00;100885.91;5005926;27;100882;-63
2020/12/17 07:15:33;;;;;;;51.73;31.97;;;0.50;99.90;;;-1.46;100.00;100885.91;5006867;27;100258;-63
2020/12/17 07:18:22;;;;;;;53.53;31.83;;;-0.20;99.90;;;-2.01;100.00;100882.19;4996795;27;100148;-64
2020/12/17 07:20:54;;;;;;;55.30;31.63;;;-0.30;99.90;;;-1.85;100.00;100885.84;5012484;27;100335;-63
2020/12/17 07:23:21;;;;;;;51.53;27.47;;;-0.20;99.90;;;-1.51;100.00;100892.28;5017748;27;100947;-63
2020/12/17 07:25:54;;;;;;;49.07;27.73;;;-0.10;99.90;;;-1.38;100.00;100903.97;5019382;27;101225;-63
2020/12/17 07:28:26;;;;;;;51.60;29.77;;;-0.10;99.90;;;-1.60;100.00;100911.03;5005249;27;100404;-64
2020/12/17 07:30:56;;;;;;;50.13;30.07;;;0.00;99.90;;;-1.22;100.00;100912.00;5016912;27;99939;-63
2020/12/17 07:33:43;;;;;;;53.97;30.73;;;0.30;99.90;;;-1.27;100.00;100914.84;5018704;27;101678;-63
2020/12/17 07:36:10;;;;;;;47.27;27.40;;;0.40;99.90;;;-0.62;100.00;100918.88;5004068;27;100834;-63
2020/12/17 07:38:39;;;;;;;54.60;29.63;;;0.50;99.90;;;-0.53;100.00;100922.84;5005598;27;100029;-64
2020/12/17 07:41:06;;;;;;;45.53;27.30;;;0.70;99.90;;;-0.75;100.00;100923.00;5016168;27;100218;-64
2020/12/17 07:43:41;;;;;;;46.07;27.97;;;1.00;99.90;;;-0.85;100.00;100911.16;5013527;27;100903;-64
2020/12/17 07:46:08;;;;;;;45.50;25.80;;;1.20;99.90;;;-0.99;100.00;100905.72;5001964;27;102012;-64
2020/12/17 07:48:46;;;;;;;41.07;25.50;;;1.40;99.90;;;-0.95;100.00;100908.13;5008252;27;101067;-65
2020/12/17 07:51:34;;;;;;;49.80;28.47;;;1.50;99.90;;;-1.11;100.00;100910.59;5024979;27;100253;-65
2020/12/17 07:54:05;;;;;;;45.57;28.27;;;1.90;99.90;;;-0.58;100.00;100909.03;5024127;27;100079;-66
2020/12/17 07:56:32;;;;;;;47.57;30.53;;;2.10;99.90;;;-0.60;100.00;100910.88;5024983;27;100272;-64
2020/12/17 07:59:04;;;;;;;55.27;31.60;;;2.40;99.90;;;-0.56;100.00;100915.94;5022831;27;100416;-67
2020/12/17 08:01:31;;;;;;;45.43;30.03;;;2.50;99.90;;;-0.18;100.00;100922.00;5024692;27;100225;-64
2020/12/17 08:03:58;;;;;;;45.73;29.27;;;2.90;99.90;;;-0.03;100.00;100933.53;5023497;27;101633;-66
2020/12/17 08:06:27;;;;;;;45.17;29.97;;;3.00;99.90;;;-0.37;100.00;100922.00;5025178;27;101150;-65
2020/12/17 08:08:56;;;;;;;43.67;30.60;;;3.40;99.90;;;-0.68;100.00;100924.41;5019210;27;100184;-65
2020/12/17 08:11:25;;;;;;;45.70;31.47;;;2.60;99.90;;;-0.62;100.00;100926.75;5005435;27;100215;-65
2020/12/17 08:13:59;;;;;;;44.27;32.17;;;3.80;99.90;;;-0.24;100.00;100914.38;5001207;27;102726;-65
2020/12/17 08:16:25;;;;;;;42.00;26.13;;;4.00;99.90;;;0.02;100.00;100920.16;5007226;27;101168;-66
2020/12/17 08:18:59;;;;;;;40.17;26.83;;;5.20;99.90;;;0.11;100.00;100910.03;5017533;27;100211;-66
2020/12/17 08:21:27;;;;;;;40.87;28.53;;;4.80;99.90;;;0.11;100.00;100915.31;5003948;27;100199;-66
2020/12/17 08:23:54;;;;;;;47.00;31.43;;;4.70;99.90;;;0.12;100.00;100913.53;5006828;27;100544;-65
2020/12/17 08:26:23;;;;;;;38.13;25.23;;;4.80;99.90;;;0.27;100.00;100912.72;5007359;27;100807;-65
2020/12/17 08:28:50;;;;;;;36.30;26.57;;;5.20;99.90;;;0.30;100.00;100912.59;5024260;27;100049;-65
2020/12/17 08:31:19;;;;;;;36.27;25.67;;;5.20;99.90;;;0.75;100.00;100911.97;5006988;27;100022;-64
2020/12/17 08:33:48;;;;;;;37.57;26.77;;;5.50;99.90;;;1.54;100.00;100909.44;5006940;27;101514;-65
2020/12/17 08:36:20;;;;;;;36.33;24.33;;;5.70;99.90;;;1.66;100.00;100909.63;5006321;27;101347;-64
2020/12/17 08:38:58;;;;;;;36.00;23.43;;;6.00;99.90;;;1.41;100.00;100910.13;5008135;27;100213;-64
2020/12/17 08:41:30;;;;;;;32.50;21.97;;;6.30;99.90;;;1.89;100.00;100910.09;5007519;27;100035;-64
2020/12/17 08:44:02;;;;;;;33.80;22.23;;;6.50;99.90;;;2.14;100.00;100907.75;5008388;27;101250;-64
2020/12/17 08:46:33;;;;;;;28.60;20.60;;;7.00;99.90;;;2.29;100.00;100904.22;5027450;27;100768;-64
2020/12/17 08:49:01;;;;;;;26.87;20.97;;;7.10;99.90;;;2.56;100.00;100909.66;5021446;27;100196;-63
2020/12/17 08:51:29;;;;;;;29.47;20.97;;;7.30;99.90;;;2.20;100.00;100910.03;5006628;27;100239;-63
2020/12/17 08:53:55;;;;;;;29.33;20.10;;;7.50;99.90;;;2.09;100.00;100913.31;5006758;27;101458;-63
2020/12/17 08:56:22;;;;;;;26.70;18.30;;;7.50;99.90;;;2.58;100.00;100910.41;5007047;27;100644;-63
2020/12/17 08:58:52;;;;;;;28.57;20.67;;;7.70;99.90;;;2.61;100.00;100912.84;5007327;27;100322;-64
2020/12/17 09:01:27;;;;;;;24.60;17.57;;;7.50;99.90;;;2.19;100.00;100910.97;5007109;27;100011;-64
2020/12/17 09:03:55;;;;;;;29.63;20.60;;;7.60;99.90;;;2.71;100.00;100911.38;5006579;27;100449;-64
2020/12/17 09:06:30;;;;;;;30.80;23.53;;;7.70;99.90;;;2.39;100.00;100910.63;5006988;27;100525;-64
2020/12/17 09:09:13;;;;;;;30.60;20.00;;;8.30;99.90;;;2.23;100.00;100901.06;5012587;27;100096;-64
2020/12/17 09:11:43;;;;;;;32.87;22.03;;;7.60;99.90;;;2.59;100.00;100909.47;5024992;27;100285;-64
2020/12/17 09:14:10;;;;;;;36.90;24.03;;;7.40;99.90;;;2.72;100.00;100918.31;5006135;27;101448;-64
2020/12/17 09:16:40;;;;;;;35.97;23.70;;;7.50;99.90;;;2.81;100.00;100914.28;5005715;27;101866;-64
2020/12/17 09:19:09;;;;;;;34.93;25.53;;;7.60;99.90;;;2.80;100.00;100909.94;5013502;27;99937;-64
2020/12/17 09:21:39;;;;;;;37.87;25.43;;;7.70;99.90;;;3.35;100.00;100906.50;5026556;27;99979;-64
2020/12/17 09:24:06;;;;;;;33.83;21.53;;;8.00;99.90;;;3.30;100.00;100905.97;5019584;27;100777;-64
2020/12/17 09:26:33;;;;;;;31.43;21.27;;;8.10;99.90;;;3.40;100.00;100909.72;5007324;27;100869;-64
2020/12/17 09:29:02;;;;;;;28.23;19.33;;;8.20;99.90;;;3.27;100.00;100906.16;5006378;27;100297;-65
2020/12/17 09:31:34;;;;;;;30.83;19.80;;;8.40;99.90;;;3.41;100.00;100903.50;5006837;27;100346;-64
2020/12/17 09:34:07;;;;;;;32.87;20.77;;;8.20;99.90;;;3.36;100.00;100900.28;5007224;27;100830;-63
2020/12/17 09:36:36;;;;;;;33.70;21.33;;;8.20;99.90;;;3.53;100.00;100900.91;5006121;27;100306;-63
2020/12/17 09:39:07;;;;;;;30.53;20.87;;;9.00;99.90;;;3.51;100.00;100894.84;5006452;27;100035;-63
2020/12/17 09:41:34;;;;;;;31.53;20.63;;;7.90;99.90;;;3.57;100.00;100906.88;5006544;27;100154;-65
2020/12/17 09:44:01;;;;;;;31.30;20.97;;;7.50;99.90;;;3.63;100.00;100908.25;5005548;27;100326;-63
2020/12/17 09:46:41;;;;;;;36.30;21.20;;;7.40;99.90;;;3.69;100.00;100898.13;5005670;27;100882;-64
2020/12/17 09:49:22;;;;;;;31.70;21.47;;;7.20;99.90;;;3.68;100.00;100903.53;5006071;27;99946;-64
2020/12/17 09:51:59;;;;;;;34.57;20.90;;;7.00;99.90;;;3.70;100.00;100891.03;5006349;27;100056;-63
2020/12/17 09:54:26;;;;;;;34.83;20.27;;;6.80;99.90;;;3.64;100.00;100888.78;5006711;27;101511;-64
2020/12/17 09:57:11;;;;;;;33.63;22.57;;;6.70;99.90;;;3.77;100.00;100887.03;5005434;27;101144;-64
2020/12/17 09:59:40;;;;;;;35.43;21.03;;;6.70;99.90;;;3.72;100.00;100886.47;5006010;27;100104;-65